<?xml version="1.0" encoding="utf-8"?>
<gpx xmlns:xsi="http://www.w3.org/2001/XMLSchema-instance" xmlns:xsd="http://www.w3.org/2001/XMLSchema" version="1.1" creator="Shapelink.com" xmlns="http://www.topografix.com/GPX/1/1" xmlns:gpxtpx="http://www.garmin.com/xmlschemas/TrackPointExtension/v1">
  <metadata>
    <name>Cykling 12.61 km, 2019-08-20</name>
    <desc></desc>
    <author><name>Henrik Staffas</name></author> 
    <time>2019-08-20T07:31:35Z</time>
  </metadata>
  <trk>
    <name>Cykling 12.61 km, 2019-08-20</name>
    <trkseg>
      <trkpt lat="59.421801909801" lon="17.966724858102">
        <ele>40.2</ele>
        <time>2019-08-20T07:31:35Z</time>
      </trkpt>
      <trkpt lat="59.421776261187" lon="17.966629974994">
        <ele>40.2</ele>
        <time>2019-08-20T07:31:37Z</time>
      </trkpt>
      <trkpt lat="59.421692609825" lon="17.966279527755">
        <ele>40.4</ele>
        <time>2019-08-20T07:31:42Z</time>
      </trkpt>
      <trkpt lat="59.421480799212" lon="17.965533538655">
        <ele>39</ele>
        <time>2019-08-20T07:31:50Z</time>
      </trkpt>
      <trkpt lat="59.421267060762" lon="17.964778916198">
        <ele>37.8</ele>
        <time>2019-08-20T07:31:58Z</time>
      </trkpt>
      <trkpt lat="59.421257924491" lon="17.964666934014">
        <ele>37.6</ele>
        <time>2019-08-20T07:31:59Z</time>
      </trkpt>
      <trkpt lat="59.421275861757" lon="17.964428552778">
        <ele>37.2</ele>
        <time>2019-08-20T07:32:01Z</time>
      </trkpt>
      <trkpt lat="59.421281309992" lon="17.964193524302">
        <ele>36.8</ele>
        <time>2019-08-20T07:32:03Z</time>
      </trkpt>
      <trkpt lat="59.421372756521" lon="17.963779542261">
        <ele>36.4</ele>
        <time>2019-08-20T07:32:07Z</time>
      </trkpt>
      <trkpt lat="59.421424640482" lon="17.963478129137">
        <ele>36.4</ele>
        <time>2019-08-20T07:32:10Z</time>
      </trkpt>
      <trkpt lat="59.421399913877" lon="17.96313841073">
        <ele>36.2</ele>
        <time>2019-08-20T07:32:13Z</time>
      </trkpt>
      <trkpt lat="59.421289524254" lon="17.962738091186">
        <ele>36.2</ele>
        <time>2019-08-20T07:32:16Z</time>
      </trkpt>
      <trkpt lat="59.421118365856" lon="17.961613659301">
        <ele>36</ele>
        <time>2019-08-20T07:32:27Z</time>
      </trkpt>
      <trkpt lat="59.420968246027" lon="17.960554522417">
        <ele>35.6</ele>
        <time>2019-08-20T07:32:36Z</time>
      </trkpt>
      <trkpt lat="59.420852575807" lon="17.959934513274">
        <ele>35.2</ele>
        <time>2019-08-20T07:32:41Z</time>
      </trkpt>
      <trkpt lat="59.42070647929" lon="17.959073775963">
        <ele>36.8</ele>
        <time>2019-08-20T07:32:49Z</time>
      </trkpt>
      <trkpt lat="59.420658451003" lon="17.958812428321">
        <ele>38</ele>
        <time>2019-08-20T07:32:53Z</time>
      </trkpt>
      <trkpt lat="59.420531213761" lon="17.958749144976">
        <ele>37.8</ele>
        <time>2019-08-20T07:32:57Z</time>
      </trkpt>
      <trkpt lat="59.420193758467" lon="17.959153487832">
        <ele>39.2</ele>
        <time>2019-08-20T07:33:04Z</time>
      </trkpt>
      <trkpt lat="59.419789331792" lon="17.95933638089">
        <ele>38.2</ele>
        <time>2019-08-20T07:33:10Z</time>
      </trkpt>
      <trkpt lat="59.419499150414" lon="17.959410728343">
        <ele>37.2</ele>
        <time>2019-08-20T07:33:14Z</time>
      </trkpt>
      <trkpt lat="59.418945777376" lon="17.959607032441">
        <ele>36.8</ele>
        <time>2019-08-20T07:33:22Z</time>
      </trkpt>
      <trkpt lat="59.418394667451" lon="17.959841474184">
        <ele>37</ele>
        <time>2019-08-20T07:33:30Z</time>
      </trkpt>
      <trkpt lat="59.418325935871" lon="17.959855304319">
        <ele>37</ele>
        <time>2019-08-20T07:33:31Z</time>
      </trkpt>
      <trkpt lat="59.417774155394" lon="17.960011207659">
        <ele>37.6</ele>
        <time>2019-08-20T07:33:39Z</time>
      </trkpt>
      <trkpt lat="59.417507862431" lon="17.960100893989">
        <ele>38.4</ele>
        <time>2019-08-20T07:33:43Z</time>
      </trkpt>
      <trkpt lat="59.417207287497" lon="17.960204242816">
        <ele>38.8</ele>
        <time>2019-08-20T07:33:48Z</time>
      </trkpt>
      <trkpt lat="59.416710073189" lon="17.960691231206">
        <ele>39.2</ele>
        <time>2019-08-20T07:33:57Z</time>
      </trkpt>
      <trkpt lat="59.41665634521" lon="17.96073699638">
        <ele>39.4</ele>
        <time>2019-08-20T07:33:58Z</time>
      </trkpt>
      <trkpt lat="59.416382843813" lon="17.960984346249">
        <ele>40.6</ele>
        <time>2019-08-20T07:34:03Z</time>
      </trkpt>
      <trkpt lat="59.416085454001" lon="17.961251896497">
        <ele>41.6</ele>
        <time>2019-08-20T07:34:09Z</time>
      </trkpt>
      <trkpt lat="59.415898537631" lon="17.961469406802">
        <ele>42.6</ele>
        <time>2019-08-20T07:34:13Z</time>
      </trkpt>
      <trkpt lat="59.415695360375" lon="17.96177383741">
        <ele>43.8</ele>
        <time>2019-08-20T07:34:18Z</time>
      </trkpt>
      <trkpt lat="59.415527470918" lon="17.961988916964">
        <ele>45</ele>
        <time>2019-08-20T07:34:22Z</time>
      </trkpt>
      <trkpt lat="59.415116003447" lon="17.962767427836">
        <ele>44.8</ele>
        <time>2019-08-20T07:34:32Z</time>
      </trkpt>
      <trkpt lat="59.414778715791" lon="17.963613748279">
        <ele>45.8</ele>
        <time>2019-08-20T07:34:42Z</time>
      </trkpt>
      <trkpt lat="59.414755581747" lon="17.963702596419">
        <ele>46</ele>
        <time>2019-08-20T07:34:43Z</time>
      </trkpt>
      <trkpt lat="59.414592218516" lon="17.964304584477">
        <ele>47</ele>
        <time>2019-08-20T07:34:50Z</time>
      </trkpt>
      <trkpt lat="59.414498425055" lon="17.964699707243">
        <ele>48</ele>
        <time>2019-08-20T07:34:55Z</time>
      </trkpt>
      <trkpt lat="59.414478057038" lon="17.964767600633">
        <ele>48.4</ele>
        <time>2019-08-20T07:34:56Z</time>
      </trkpt>
      <trkpt lat="59.414416533892" lon="17.964968347138">
        <ele>49.2</ele>
        <time>2019-08-20T07:34:59Z</time>
      </trkpt>
      <trkpt lat="59.414354843108" lon="17.965198514112">
        <ele>50.2</ele>
        <time>2019-08-20T07:35:02Z</time>
      </trkpt>
      <trkpt lat="59.414227941142" lon="17.965649879427">
        <ele>51.4</ele>
        <time>2019-08-20T07:35:08Z</time>
      </trkpt>
      <trkpt lat="59.414119730813" lon="17.965941569547">
        <ele>52.6</ele>
        <time>2019-08-20T07:35:12Z</time>
      </trkpt>
      <trkpt lat="59.414001378385" lon="17.966363262936">
        <ele>53.6</ele>
        <time>2019-08-20T07:35:17Z</time>
      </trkpt>
      <trkpt lat="59.413873470591" lon="17.966690157036">
        <ele>54.8</ele>
        <time>2019-08-20T07:35:22Z</time>
      </trkpt>
      <trkpt lat="59.413726787341" lon="17.966996096386">
        <ele>56</ele>
        <time>2019-08-20T07:35:27Z</time>
      </trkpt>
      <trkpt lat="59.413652775164" lon="17.967120399963">
        <ele>56.4</ele>
        <time>2019-08-20T07:35:29Z</time>
      </trkpt>
      <trkpt lat="59.413497877652" lon="17.967351488946">
        <ele>57</ele>
        <time>2019-08-20T07:35:33Z</time>
      </trkpt>
      <trkpt lat="59.413350775307" lon="17.967545110836">
        <ele>58</ele>
        <time>2019-08-20T07:35:37Z</time>
      </trkpt>
      <trkpt lat="59.413077609186" lon="17.967817271129">
        <ele>59</ele>
        <time>2019-08-20T07:35:44Z</time>
      </trkpt>
      <trkpt lat="59.412918604543" lon="17.967940317421">
        <ele>60.2</ele>
        <time>2019-08-20T07:35:48Z</time>
      </trkpt>
      <trkpt lat="59.412613084288" lon="17.968079373142">
        <ele>61.4</ele>
        <time>2019-08-20T07:35:55Z</time>
      </trkpt>
      <trkpt lat="59.412047306038" lon="17.968091359259">
        <ele>62.4</ele>
        <time>2019-08-20T07:36:06Z</time>
      </trkpt>
      <trkpt lat="59.411846391895" lon="17.968127652886">
        <ele>62.8</ele>
        <time>2019-08-20T07:36:10Z</time>
      </trkpt>
      <trkpt lat="59.411629887418" lon="17.968213148266">
        <ele>63</ele>
        <time>2019-08-20T07:36:14Z</time>
      </trkpt>
      <trkpt lat="59.411068300118" lon="17.968488242224">
        <ele>62.2</ele>
        <time>2019-08-20T07:36:23Z</time>
      </trkpt>
      <trkpt lat="59.410598243166" lon="17.969183520829">
        <ele>61.4</ele>
        <time>2019-08-20T07:36:32Z</time>
      </trkpt>
      <trkpt lat="59.410211167024" lon="17.970092370246">
        <ele>60.6</ele>
        <time>2019-08-20T07:36:40Z</time>
      </trkpt>
      <trkpt lat="59.410096251175" lon="17.970353885526">
        <ele>59.8</ele>
        <time>2019-08-20T07:36:42Z</time>
      </trkpt>
      <trkpt lat="59.409956021988" lon="17.970759820943">
        <ele>58.4</ele>
        <time>2019-08-20T07:36:45Z</time>
      </trkpt>
      <trkpt lat="59.409813194412" lon="17.971157206822">
        <ele>57.2</ele>
        <time>2019-08-20T07:36:48Z</time>
      </trkpt>
      <trkpt lat="59.409469285055" lon="17.972047783697">
        <ele>56.4</ele>
        <time>2019-08-20T07:36:55Z</time>
      </trkpt>
      <trkpt lat="59.409363840753" lon="17.972298486326">
        <ele>56</ele>
        <time>2019-08-20T07:36:57Z</time>
      </trkpt>
      <trkpt lat="59.409155299081" lon="17.972731243823">
        <ele>55</ele>
        <time>2019-08-20T07:37:01Z</time>
      </trkpt>
      <trkpt lat="59.409000820664" lon="17.973060401036">
        <ele>53.8</ele>
        <time>2019-08-20T07:37:04Z</time>
      </trkpt>
      <trkpt lat="59.408568063167" lon="17.973863554694">
        <ele>53.2</ele>
        <time>2019-08-20T07:37:11Z</time>
      </trkpt>
      <trkpt lat="59.40836999887" lon="17.974213918114">
        <ele>52.4</ele>
        <time>2019-08-20T07:37:14Z</time>
      </trkpt>
      <trkpt lat="59.407848141776" lon="17.974814229792">
        <ele>51.6</ele>
        <time>2019-08-20T07:37:21Z</time>
      </trkpt>
      <trkpt lat="59.407277334386" lon="17.975087144456">
        <ele>51.6</ele>
        <time>2019-08-20T07:37:28Z</time>
      </trkpt>
      <trkpt lat="59.407201478191" lon="17.975115475278">
        <ele>51.2</ele>
        <time>2019-08-20T07:37:29Z</time>
      </trkpt>
      <trkpt lat="59.407049514344" lon="17.975155708398">
        <ele>50.2</ele>
        <time>2019-08-20T07:37:31Z</time>
      </trkpt>
      <trkpt lat="59.40696938338" lon="17.975159480253">
        <ele>50</ele>
        <time>2019-08-20T07:37:32Z</time>
      </trkpt>
      <trkpt lat="59.406810211099" lon="17.975207257083">
        <ele>49.8</ele>
        <time>2019-08-20T07:37:34Z</time>
      </trkpt>
      <trkpt lat="59.4065905215" lon="17.975429964166">
        <ele>48.4</ele>
        <time>2019-08-20T07:37:37Z</time>
      </trkpt>
      <trkpt lat="59.406099677436" lon="17.976186430641">
        <ele>47.8</ele>
        <time>2019-08-20T07:37:44Z</time>
      </trkpt>
      <trkpt lat="59.405851154101" lon="17.976720860585">
        <ele>47.6</ele>
        <time>2019-08-20T07:37:48Z</time>
      </trkpt>
      <trkpt lat="59.40573472951" lon="17.976862179419">
        <ele>47.6</ele>
        <time>2019-08-20T07:37:50Z</time>
      </trkpt>
      <trkpt lat="59.405636326004" lon="17.976913392828">
        <ele>47.2</ele>
        <time>2019-08-20T07:37:52Z</time>
      </trkpt>
      <trkpt lat="59.405591063744" lon="17.97691741614">
        <ele>46.8</ele>
        <time>2019-08-20T07:37:53Z</time>
      </trkpt>
      <trkpt lat="59.405531300797" lon="17.976824293231">
        <ele>45.8</ele>
        <time>2019-08-20T07:37:55Z</time>
      </trkpt>
      <trkpt lat="59.405487044365" lon="17.976762183352">
        <ele>45.4</ele>
        <time>2019-08-20T07:37:56Z</time>
      </trkpt>
      <trkpt lat="59.40525277026" lon="17.976553138766">
        <ele>44.6</ele>
        <time>2019-08-20T07:38:00Z</time>
      </trkpt>
      <trkpt lat="59.405154953487" lon="17.976381477454">
        <ele>44.4</ele>
        <time>2019-08-20T07:38:02Z</time>
      </trkpt>
      <trkpt lat="59.40504992828" lon="17.976145778426">
        <ele>43.4</ele>
        <time>2019-08-20T07:38:04Z</time>
      </trkpt>
      <trkpt lat="59.404782964765" lon="17.975369698305">
        <ele>42.4</ele>
        <time>2019-08-20T07:38:10Z</time>
      </trkpt>
      <trkpt lat="59.404644076682" lon="17.975113128346">
        <ele>42.2</ele>
        <time>2019-08-20T07:38:12Z</time>
      </trkpt>
      <trkpt lat="59.404518096725" lon="17.974914644954">
        <ele>41.6</ele>
        <time>2019-08-20T07:38:14Z</time>
      </trkpt>
      <trkpt lat="59.404440396512" lon="17.974825461538">
        <ele>41.4</ele>
        <time>2019-08-20T07:38:15Z</time>
      </trkpt>
      <trkpt lat="59.40435423058" lon="17.974746084945">
        <ele>41.2</ele>
        <time>2019-08-20T07:38:16Z</time>
      </trkpt>
      <trkpt lat="59.403778813145" lon="17.974444588002">
        <ele>42</ele>
        <time>2019-08-20T07:38:23Z</time>
      </trkpt>
      <trkpt lat="59.403525176851" lon="17.974323721004">
        <ele>42.6</ele>
        <time>2019-08-20T07:38:27Z</time>
      </trkpt>
      <trkpt lat="59.403338176662" lon="17.974194639744">
        <ele>42.8</ele>
        <time>2019-08-20T07:38:30Z</time>
      </trkpt>
      <trkpt lat="59.403084037454" lon="17.973916109207">
        <ele>43.4</ele>
        <time>2019-08-20T07:38:34Z</time>
      </trkpt>
      <trkpt lat="59.402917992015" lon="17.973891047326">
        <ele>43.6</ele>
        <time>2019-08-20T07:38:36Z</time>
      </trkpt>
      <trkpt lat="59.402794442809" lon="17.974017614016">
        <ele>43.6</ele>
        <time>2019-08-20T07:38:38Z</time>
      </trkpt>
      <trkpt lat="59.402702577185" lon="17.974227580611">
        <ele>44</ele>
        <time>2019-08-20T07:38:40Z</time>
      </trkpt>
      <trkpt lat="59.402329498816" lon="17.975003744551">
        <ele>43.6</ele>
        <time>2019-08-20T07:38:47Z</time>
      </trkpt>
      <trkpt lat="59.401985421821" lon="17.975842521284">
        <ele>43.2</ele>
        <time>2019-08-20T07:38:54Z</time>
      </trkpt>
      <trkpt lat="59.401613433099" lon="17.976695211971">
        <ele>42.8</ele>
        <time>2019-08-20T07:39:01Z</time>
      </trkpt>
      <trkpt lat="59.401449315497" lon="17.977092430212">
        <ele>42.2</ele>
        <time>2019-08-20T07:39:04Z</time>
      </trkpt>
      <trkpt lat="59.401158044472" lon="17.977736914503">
        <ele>41.8</ele>
        <time>2019-08-20T07:39:09Z</time>
      </trkpt>
      <trkpt lat="59.400777087117" lon="17.97859295795">
        <ele>41</ele>
        <time>2019-08-20T07:39:16Z</time>
      </trkpt>
      <trkpt lat="59.400385568568" lon="17.97940935501">
        <ele>40.6</ele>
        <time>2019-08-20T07:39:23Z</time>
      </trkpt>
      <trkpt lat="59.399980471341" lon="17.980214604143">
        <ele>40.4</ele>
        <time>2019-08-20T07:39:30Z</time>
      </trkpt>
      <trkpt lat="59.399921630403" lon="17.980329100897">
        <ele>40</ele>
        <time>2019-08-20T07:39:31Z</time>
      </trkpt>
      <trkpt lat="59.399556095744" lon="17.981180701937">
        <ele>39.4</ele>
        <time>2019-08-20T07:39:38Z</time>
      </trkpt>
      <trkpt lat="59.399324922942" lon="17.98165905697">
        <ele>38.8</ele>
        <time>2019-08-20T07:39:42Z</time>
      </trkpt>
      <trkpt lat="59.399111603587" lon="17.982108829724">
        <ele>39</ele>
        <time>2019-08-20T07:39:46Z</time>
      </trkpt>
      <trkpt lat="59.39867214057" lon="17.982745854124">
        <ele>38</ele>
        <time>2019-08-20T07:39:53Z</time>
      </trkpt>
      <trkpt lat="59.398607180845" lon="17.982834534626">
        <ele>37.8</ele>
        <time>2019-08-20T07:39:54Z</time>
      </trkpt>
      <trkpt lat="59.398130837468" lon="17.983413221002">
        <ele>37.6</ele>
        <time>2019-08-20T07:40:01Z</time>
      </trkpt>
      <trkpt lat="59.397850546732" lon="17.983762494775">
        <ele>36.6</ele>
        <time>2019-08-20T07:40:05Z</time>
      </trkpt>
      <trkpt lat="59.397474283241" lon="17.984141440474">
        <ele>35.4</ele>
        <time>2019-08-20T07:40:10Z</time>
      </trkpt>
      <trkpt lat="59.396944798618" lon="17.984667907613">
        <ele>35.6</ele>
        <time>2019-08-20T07:40:17Z</time>
      </trkpt>
      <trkpt lat="59.396477675331" lon="17.985145759732">
        <ele>34.2</ele>
        <time>2019-08-20T07:40:23Z</time>
      </trkpt>
      <trkpt lat="59.395995464624" lon="17.985653786691">
        <ele>33.8</ele>
        <time>2019-08-20T07:40:29Z</time>
      </trkpt>
      <trkpt lat="59.395456927549" lon="17.98606374542">
        <ele>34.6</ele>
        <time>2019-08-20T07:40:36Z</time>
      </trkpt>
      <trkpt lat="59.394894082964" lon="17.986394076099">
        <ele>33.8</ele>
        <time>2019-08-20T07:40:43Z</time>
      </trkpt>
      <trkpt lat="59.394722337833" lon="17.986485690266">
        <ele>33</ele>
        <time>2019-08-20T07:40:45Z</time>
      </trkpt>
      <trkpt lat="59.394158571239" lon="17.98685164402">
        <ele>32.2</ele>
        <time>2019-08-20T07:40:52Z</time>
      </trkpt>
      <trkpt lat="59.394078356456" lon="17.986897995927">
        <ele>31.8</ele>
        <time>2019-08-20T07:40:53Z</time>
      </trkpt>
      <trkpt lat="59.393513164939" lon="17.987113913671">
        <ele>31.6</ele>
        <time>2019-08-20T07:40:59Z</time>
      </trkpt>
      <trkpt lat="59.393295822272" lon="17.987332094528">
        <ele>30.8</ele>
        <time>2019-08-20T07:41:02Z</time>
      </trkpt>
      <trkpt lat="59.393014441889" lon="17.987498056148">
        <ele>30.6</ele>
        <time>2019-08-20T07:41:05Z</time>
      </trkpt>
      <trkpt lat="59.39268159664" lon="17.987879935512">
        <ele>30.2</ele>
        <time>2019-08-20T07:41:09Z</time>
      </trkpt>
      <trkpt lat="59.392610099033" lon="17.988005077279">
        <ele>29.8</ele>
        <time>2019-08-20T07:41:10Z</time>
      </trkpt>
      <trkpt lat="59.392274571576" lon="17.988917530913">
        <ele>29.8</ele>
        <time>2019-08-20T07:41:16Z</time>
      </trkpt>
      <trkpt lat="59.392075501451" lon="17.989932243727">
        <ele>28.8</ele>
        <time>2019-08-20T07:41:22Z</time>
      </trkpt>
      <trkpt lat="59.39203199939" lon="17.99010382122">
        <ele>28.6</ele>
        <time>2019-08-20T07:41:23Z</time>
      </trkpt>
      <trkpt lat="59.391932841513" lon="17.990443874903">
        <ele>27.4</ele>
        <time>2019-08-20T07:41:25Z</time>
      </trkpt>
      <trkpt lat="59.391749361722" lon="17.991096154361">
        <ele>26.2</ele>
        <time>2019-08-20T07:41:29Z</time>
      </trkpt>
      <trkpt lat="59.391610641277" lon="17.991576772507">
        <ele>25.2</ele>
        <time>2019-08-20T07:41:32Z</time>
      </trkpt>
      <trkpt lat="59.391460856724" lon="17.992050433676">
        <ele>24</ele>
        <time>2019-08-20T07:41:35Z</time>
      </trkpt>
      <trkpt lat="59.391297996407" lon="17.992525603587">
        <ele>23</ele>
        <time>2019-08-20T07:41:38Z</time>
      </trkpt>
      <trkpt lat="59.390970096479" lon="17.993507291715">
        <ele>21.6</ele>
        <time>2019-08-20T07:41:44Z</time>
      </trkpt>
      <trkpt lat="59.39075962697" lon="17.994177089344">
        <ele>20.4</ele>
        <time>2019-08-20T07:41:48Z</time>
      </trkpt>
      <trkpt lat="59.390450921593" lon="17.995129357003">
        <ele>19.8</ele>
        <time>2019-08-20T07:41:54Z</time>
      </trkpt>
      <trkpt lat="59.390129140452" lon="17.99604742651">
        <ele>20.6</ele>
        <time>2019-08-20T07:42:00Z</time>
      </trkpt>
      <trkpt lat="59.390004585418" lon="17.996336685879">
        <ele>20.8</ele>
        <time>2019-08-20T07:42:02Z</time>
      </trkpt>
      <trkpt lat="59.389794451185" lon="17.996633824234">
        <ele>21.8</ele>
        <time>2019-08-20T07:42:05Z</time>
      </trkpt>
      <trkpt lat="59.389676098757" lon="17.99676994629">
        <ele>23</ele>
        <time>2019-08-20T07:42:07Z</time>
      </trkpt>
      <trkpt lat="59.389520279236" lon="17.996987456595">
        <ele>24</ele>
        <time>2019-08-20T07:42:10Z</time>
      </trkpt>
      <trkpt lat="59.389330429201" lon="17.997253414282">
        <ele>25.2</ele>
        <time>2019-08-20T07:42:14Z</time>
      </trkpt>
      <trkpt lat="59.389197995181" lon="17.997448712552">
        <ele>26</ele>
        <time>2019-08-20T07:42:17Z</time>
      </trkpt>
      <trkpt lat="59.389156923871" lon="17.997514007553">
        <ele>26.2</ele>
        <time>2019-08-20T07:42:18Z</time>
      </trkpt>
      <trkpt lat="59.389077212002" lon="17.997631270334">
        <ele>26.8</ele>
        <time>2019-08-20T07:42:20Z</time>
      </trkpt>
      <trkpt lat="59.38899020788" lon="17.997715592248">
        <ele>27.4</ele>
        <time>2019-08-20T07:42:22Z</time>
      </trkpt>
      <trkpt lat="59.388805470804" lon="17.997887505017">
        <ele>28.6</ele>
        <time>2019-08-20T07:42:27Z</time>
      </trkpt>
      <trkpt lat="59.388699020674" lon="17.997999319563">
        <ele>29.8</ele>
        <time>2019-08-20T07:42:30Z</time>
      </trkpt>
      <trkpt lat="59.388599778978" lon="17.998129574289">
        <ele>31</ele>
        <time>2019-08-20T07:42:33Z</time>
      </trkpt>
      <trkpt lat="59.388517384901" lon="17.99825186621">
        <ele>31.8</ele>
        <time>2019-08-20T07:42:35Z</time>
      </trkpt>
      <trkpt lat="59.388472793193" lon="17.998306935293">
        <ele>32</ele>
        <time>2019-08-20T07:42:36Z</time>
      </trkpt>
      <trkpt lat="59.38807574259" lon="17.998883190918">
        <ele>32</ele>
        <time>2019-08-20T07:42:43Z</time>
      </trkpt>
      <trkpt lat="59.387971136478" lon="17.99896768047">
        <ele>31.8</ele>
        <time>2019-08-20T07:42:45Z</time>
      </trkpt>
      <trkpt lat="59.387884467632" lon="17.998951922498">
        <ele>31</ele>
        <time>2019-08-20T07:42:47Z</time>
      </trkpt>
      <trkpt lat="59.387814814043" lon="17.998856285019">
        <ele>29.6</ele>
        <time>2019-08-20T07:42:49Z</time>
      </trkpt>
      <trkpt lat="59.387770222335" lon="17.998679510748">
        <ele>29</ele>
        <time>2019-08-20T07:42:51Z</time>
      </trkpt>
      <trkpt lat="59.387772233991" lon="17.998285896724">
        <ele>28.8</ele>
        <time>2019-08-20T07:42:55Z</time>
      </trkpt>
      <trkpt lat="59.387730073034" lon="17.998147260098">
        <ele>28.6</ele>
        <time>2019-08-20T07:42:57Z</time>
      </trkpt>
      <trkpt lat="59.387626640388" lon="17.998005354531">
        <ele>28.8</ele>
        <time>2019-08-20T07:42:59Z</time>
      </trkpt>
      <trkpt lat="59.387062035604" lon="17.997901586609">
        <ele>29.2</ele>
        <time>2019-08-20T07:43:06Z</time>
      </trkpt>
      <trkpt lat="59.386512350602" lon="17.99791994297">
        <ele>28.6</ele>
        <time>2019-08-20T07:43:12Z</time>
      </trkpt>
      <trkpt lat="59.386055453233" lon="17.99790234098">
        <ele>27.6</ele>
        <time>2019-08-20T07:43:16Z</time>
      </trkpt>
      <trkpt lat="59.385408454372" lon="17.997852971589">
        <ele>27.4</ele>
        <time>2019-08-20T07:43:21Z</time>
      </trkpt>
      <trkpt lat="59.385101090099" lon="17.997859174195">
        <ele>26.2</ele>
        <time>2019-08-20T07:43:24Z</time>
      </trkpt>
      <trkpt lat="59.384899337766" lon="17.997864119516">
        <ele>24.8</ele>
        <time>2019-08-20T07:43:26Z</time>
      </trkpt>
      <trkpt lat="59.384615861908" lon="17.997868645742">
        <ele>23.8</ele>
        <time>2019-08-20T07:43:29Z</time>
      </trkpt>
      <trkpt lat="59.384045557432" lon="17.997922708997">
        <ele>23.8</ele>
        <time>2019-08-20T07:43:35Z</time>
      </trkpt>
      <trkpt lat="59.383778426279" lon="17.99795347057">
        <ele>22.6</ele>
        <time>2019-08-20T07:43:38Z</time>
      </trkpt>
      <trkpt lat="59.383611877926" lon="17.998069056971">
        <ele>21.6</ele>
        <time>2019-08-20T07:43:40Z</time>
      </trkpt>
      <trkpt lat="59.38354616383" lon="17.998160419681">
        <ele>21.2</ele>
        <time>2019-08-20T07:43:41Z</time>
      </trkpt>
      <trkpt lat="59.383086248977" lon="17.998861900892">
        <ele>20.6</ele>
        <time>2019-08-20T07:43:48Z</time>
      </trkpt>
      <trkpt lat="59.383035287025" lon="17.998976397646">
        <ele>20.6</ele>
        <time>2019-08-20T07:43:49Z</time>
      </trkpt>
      <trkpt lat="59.382947779989" lon="17.999240762772">
        <ele>20.6</ele>
        <time>2019-08-20T07:43:51Z</time>
      </trkpt>
      <trkpt lat="59.38284627518" lon="17.999664132541">
        <ele>21.2</ele>
        <time>2019-08-20T07:43:54Z</time>
      </trkpt>
      <trkpt lat="59.382711494228" lon="17.999872171299">
        <ele>21.2</ele>
        <time>2019-08-20T07:43:56Z</time>
      </trkpt>
      <trkpt lat="59.382201120337" lon="18.000467286199">
        <ele>21.4</ele>
        <time>2019-08-20T07:44:03Z</time>
      </trkpt>
      <trkpt lat="59.381781187147" lon="18.001017977029">
        <ele>20</ele>
        <time>2019-08-20T07:44:09Z</time>
      </trkpt>
      <trkpt lat="59.381507601931" lon="18.001389965751">
        <ele>19.6</ele>
        <time>2019-08-20T07:44:13Z</time>
      </trkpt>
      <trkpt lat="59.381367205106" lon="18.001489877999">
        <ele>19.6</ele>
        <time>2019-08-20T07:44:15Z</time>
      </trkpt>
      <trkpt lat="59.381225299539" lon="18.001550562955">
        <ele>18.8</ele>
        <time>2019-08-20T07:44:17Z</time>
      </trkpt>
      <trkpt lat="59.380637393073" lon="18.001376470892">
        <ele>20</ele>
        <time>2019-08-20T07:44:26Z</time>
      </trkpt>
      <trkpt lat="59.380378895277" lon="18.00132550894">
        <ele>21.4</ele>
        <time>2019-08-20T07:44:30Z</time>
      </trkpt>
      <trkpt lat="59.38018334555" lon="18.001325006026">
        <ele>22.4</ele>
        <time>2019-08-20T07:44:33Z</time>
      </trkpt>
      <trkpt lat="59.380063652018" lon="18.001365574422">
        <ele>23.2</ele>
        <time>2019-08-20T07:44:35Z</time>
      </trkpt>
      <trkpt lat="59.379944629038" lon="18.001444029006">
        <ele>23.6</ele>
        <time>2019-08-20T07:44:37Z</time>
      </trkpt>
      <trkpt lat="59.379387484145" lon="18.001837810668">
        <ele>23.6</ele>
        <time>2019-08-20T07:44:46Z</time>
      </trkpt>
      <trkpt lat="59.378892449131" lon="18.0022341069">
        <ele>24.6</ele>
        <time>2019-08-20T07:44:55Z</time>
      </trkpt>
      <trkpt lat="59.378653313524" lon="18.002389758783">
        <ele>25.8</ele>
        <time>2019-08-20T07:45:00Z</time>
      </trkpt>
      <trkpt lat="59.37851534745" lon="18.002505345184">
        <ele>26.8</ele>
        <time>2019-08-20T07:45:03Z</time>
      </trkpt>
      <trkpt lat="59.378423230369" lon="18.002584805596">
        <ele>27</ele>
        <time>2019-08-20T07:45:05Z</time>
      </trkpt>
      <trkpt lat="59.378326167967" lon="18.002652112253">
        <ele>27</ele>
        <time>2019-08-20T07:45:07Z</time>
      </trkpt>
      <trkpt lat="59.377897936696" lon="18.002994429049">
        <ele>27.6</ele>
        <time>2019-08-20T07:45:15Z</time>
      </trkpt>
      <trkpt lat="59.377797521534" lon="18.003146728172">
        <ele>27.2</ele>
        <time>2019-08-20T07:45:17Z</time>
      </trkpt>
      <trkpt lat="59.37767548107" lon="18.003219231607">
        <ele>27</ele>
        <time>2019-08-20T07:45:19Z</time>
      </trkpt>
      <trkpt lat="59.377541454489" lon="18.003260973469">
        <ele>26.8</ele>
        <time>2019-08-20T07:45:21Z</time>
      </trkpt>
      <trkpt lat="59.377400722388" lon="18.003358035871">
        <ele>26.4</ele>
        <time>2019-08-20T07:45:23Z</time>
      </trkpt>
      <trkpt lat="59.377245908695" lon="18.003512011374">
        <ele>25.8</ele>
        <time>2019-08-20T07:45:25Z</time>
      </trkpt>
      <trkpt lat="59.377099225445" lon="18.003685600523">
        <ele>24.6</ele>
        <time>2019-08-20T07:45:27Z</time>
      </trkpt>
      <trkpt lat="59.37694793215" lon="18.003859441129">
        <ele>23.6</ele>
        <time>2019-08-20T07:45:29Z</time>
      </trkpt>
      <trkpt lat="59.376686752146" lon="18.004061528738">
        <ele>22.6</ele>
        <time>2019-08-20T07:45:32Z</time>
      </trkpt>
      <trkpt lat="59.376413921301" lon="18.004215671879">
        <ele>21</ele>
        <time>2019-08-20T07:45:35Z</time>
      </trkpt>
      <trkpt lat="59.376234381003" lon="18.004301334897">
        <ele>20</ele>
        <time>2019-08-20T07:45:37Z</time>
      </trkpt>
      <trkpt lat="59.375697771765" lon="18.004583385832">
        <ele>19</ele>
        <time>2019-08-20T07:45:43Z</time>
      </trkpt>
      <trkpt lat="59.375613114575" lon="18.004639796019">
        <ele>19</ele>
        <time>2019-08-20T07:45:44Z</time>
      </trkpt>
      <trkpt lat="59.375258895481" lon="18.004876752332">
        <ele>18</ele>
        <time>2019-08-20T07:45:48Z</time>
      </trkpt>
      <trkpt lat="59.374746929029" lon="18.005263241741">
        <ele>17.2</ele>
        <time>2019-08-20T07:45:54Z</time>
      </trkpt>
      <trkpt lat="59.374576189726" lon="18.005392071544">
        <ele>16.8</ele>
        <time>2019-08-20T07:45:56Z</time>
      </trkpt>
      <trkpt lat="59.373999515006" lon="18.005848801275">
        <ele>16</ele>
        <time>2019-08-20T07:46:03Z</time>
      </trkpt>
      <trkpt lat="59.373438765896" lon="18.006296394735">
        <ele>16.4</ele>
        <time>2019-08-20T07:46:10Z</time>
      </trkpt>
      <trkpt lat="59.372915232422" lon="18.006788663722">
        <ele>16.2</ele>
        <time>2019-08-20T07:46:17Z</time>
      </trkpt>
      <trkpt lat="59.372541483501" lon="18.007106337732">
        <ele>17.4</ele>
        <time>2019-08-20T07:46:23Z</time>
      </trkpt>
      <trkpt lat="59.372012837068" lon="18.00755158426">
        <ele>17.2</ele>
        <time>2019-08-20T07:46:31Z</time>
      </trkpt>
      <trkpt lat="59.371557113165" lon="18.007752246946">
        <ele>16.2</ele>
        <time>2019-08-20T07:46:38Z</time>
      </trkpt>
      <trkpt lat="59.371366676397" lon="18.007767502004">
        <ele>16.4</ele>
        <time>2019-08-20T07:46:41Z</time>
      </trkpt>
      <trkpt lat="59.370971888907" lon="18.007844028751">
        <ele>15.6</ele>
        <time>2019-08-20T07:46:47Z</time>
      </trkpt>
      <trkpt lat="59.370397142024" lon="18.008095066656">
        <ele>16.6</ele>
        <time>2019-08-20T07:46:57Z</time>
      </trkpt>
      <trkpt lat="59.370340564199" lon="18.008125828229">
        <ele>16.8</ele>
        <time>2019-08-20T07:46:58Z</time>
      </trkpt>
      <trkpt lat="59.370228917291" lon="18.008180981131">
        <ele>17.8</ele>
        <time>2019-08-20T07:47:00Z</time>
      </trkpt>
      <trkpt lat="59.370120371686" lon="18.008235379662">
        <ele>19.2</ele>
        <time>2019-08-20T07:47:02Z</time>
      </trkpt>
      <trkpt lat="59.36994569289" lon="18.00831517535">
        <ele>20.4</ele>
        <time>2019-08-20T07:47:05Z</time>
      </trkpt>
      <trkpt lat="59.369363653754" lon="18.008587754738">
        <ele>21</ele>
        <time>2019-08-20T07:47:15Z</time>
      </trkpt>
      <trkpt lat="59.368857889908" lon="18.009051692903">
        <ele>20.6</ele>
        <time>2019-08-20T07:47:24Z</time>
      </trkpt>
      <trkpt lat="59.368764515542" lon="18.009199801076">
        <ele>20.8</ele>
        <time>2019-08-20T07:47:26Z</time>
      </trkpt>
      <trkpt lat="59.368439130184" lon="18.009886027229">
        <ele>21.2</ele>
        <time>2019-08-20T07:47:34Z</time>
      </trkpt>
      <trkpt lat="59.368352796614" lon="18.010041679112">
        <ele>20.8</ele>
        <time>2019-08-20T07:47:36Z</time>
      </trkpt>
      <trkpt lat="59.368289094174" lon="18.010369914316">
        <ele>20.6</ele>
        <time>2019-08-20T07:47:39Z</time>
      </trkpt>
      <trkpt lat="59.368222709526" lon="18.010570241726">
        <ele>20.8</ele>
        <time>2019-08-20T07:47:41Z</time>
      </trkpt>
      <trkpt lat="59.367969659965" lon="18.011239955536">
        <ele>21.4</ele>
        <time>2019-08-20T07:47:48Z</time>
      </trkpt>
      <trkpt lat="59.367575878303" lon="18.011899024333">
        <ele>22.6</ele>
        <time>2019-08-20T07:47:57Z</time>
      </trkpt>
      <trkpt lat="59.367273207894" lon="18.01224628645">
        <ele>23</ele>
        <time>2019-08-20T07:48:04Z</time>
      </trkpt>
      <trkpt lat="59.367183689202" lon="18.012288028312">
        <ele>23.2</ele>
        <time>2019-08-20T07:48:06Z</time>
      </trkpt>
      <trkpt lat="59.367141528245" lon="18.012330608364">
        <ele>23.6</ele>
        <time>2019-08-20T07:48:07Z</time>
      </trkpt>
      <trkpt lat="59.367104564066" lon="18.012389700759">
        <ele>24</ele>
        <time>2019-08-20T07:48:08Z</time>
      </trkpt>
      <trkpt lat="59.367026193301" lon="18.012508556101">
        <ele>24.4</ele>
        <time>2019-08-20T07:48:10Z</time>
      </trkpt>
      <trkpt lat="59.366983697068" lon="18.012550633239">
        <ele>24.6</ele>
        <time>2019-08-20T07:48:11Z</time>
      </trkpt>
      <trkpt lat="59.366907086502" lon="18.0126444267">
        <ele>24.8</ele>
        <time>2019-08-20T07:48:13Z</time>
      </trkpt>
      <trkpt lat="59.366681613392" lon="18.012956903932">
        <ele>25.6</ele>
        <time>2019-08-20T07:48:19Z</time>
      </trkpt>
      <trkpt lat="59.36623334938" lon="18.013552773203">
        <ele>26.6</ele>
        <time>2019-08-20T07:48:29Z</time>
      </trkpt>
      <trkpt lat="59.36613360477" lon="18.013690571639">
        <ele>26.6</ele>
        <time>2019-08-20T07:48:31Z</time>
      </trkpt>
      <trkpt lat="59.365663212542" lon="18.014307144203">
        <ele>26</ele>
        <time>2019-08-20T07:48:40Z</time>
      </trkpt>
      <trkpt lat="59.365561875371" lon="18.014427843563">
        <ele>25.6</ele>
        <time>2019-08-20T07:48:42Z</time>
      </trkpt>
      <trkpt lat="59.365298516073" lon="18.014839562491">
        <ele>25.2</ele>
        <time>2019-08-20T07:48:50Z</time>
      </trkpt>
      <trkpt lat="59.36521830129" lon="18.014941234938">
        <ele>26</ele>
        <time>2019-08-20T07:48:52Z</time>
      </trkpt>
      <trkpt lat="59.365069690203" lon="18.01502572449">
        <ele>26.2</ele>
        <time>2019-08-20T07:48:55Z</time>
      </trkpt>
      <trkpt lat="59.364946392454" lon="18.01501315164">
        <ele>25.6</ele>
        <time>2019-08-20T07:48:57Z</time>
      </trkpt>
      <trkpt lat="59.364848994776" lon="18.014924387319">
        <ele>24.8</ele>
        <time>2019-08-20T07:48:59Z</time>
      </trkpt>
      <trkpt lat="59.364755117496" lon="18.01477678206">
        <ele>25.4</ele>
        <time>2019-08-20T07:49:05Z</time>
      </trkpt>
      <trkpt lat="59.364687475563" lon="18.014700590589">
        <ele>26.6</ele>
        <time>2019-08-20T07:49:08Z</time>
      </trkpt>
      <trkpt lat="59.364626958245" lon="18.014690029395">
        <ele>26.8</ele>
        <time>2019-08-20T07:49:09Z</time>
      </trkpt>
      <trkpt lat="59.364435599468" lon="18.014633619208">
        <ele>27.2</ele>
        <time>2019-08-20T07:49:11Z</time>
      </trkpt>
      <trkpt lat="59.364420679686" lon="18.014790444557">
        <ele>27.2</ele>
        <time>2019-08-20T07:49:13Z</time>
      </trkpt>
      <trkpt lat="59.364391259217" lon="18.015298639154">
        <ele>28</ele>
        <time>2019-08-20T07:49:19Z</time>
      </trkpt>
      <trkpt lat="59.364347254242" lon="18.015583791392">
        <ele>29.4</ele>
        <time>2019-08-20T07:49:24Z</time>
      </trkpt>
      <trkpt lat="59.364211132186" lon="18.016003473125">
        <ele>30.4</ele>
        <time>2019-08-20T07:49:29Z</time>
      </trkpt>
      <trkpt lat="59.364005775636" lon="18.016559528371">
        <ele>31.4</ele>
        <time>2019-08-20T07:49:38Z</time>
      </trkpt>
      <trkpt lat="59.363882813163" lon="18.016709899657">
        <ele>32.6</ele>
        <time>2019-08-20T07:49:43Z</time>
      </trkpt>
      <trkpt lat="59.363688436902" lon="18.016803860756">
        <ele>32.6</ele>
        <time>2019-08-20T07:49:44Z</time>
      </trkpt>
      <trkpt lat="59.36364501866" lon="18.016251745003">
        <ele>33</ele>
        <time>2019-08-20T07:49:51Z</time>
      </trkpt>
      <trkpt lat="59.363563378954" lon="18.016094332921">
        <ele>34</ele>
        <time>2019-08-20T07:49:55Z</time>
      </trkpt>
      <trkpt lat="59.36344301487" lon="18.015985284402">
        <ele>35.2</ele>
        <time>2019-08-20T07:49:58Z</time>
      </trkpt>
      <trkpt lat="59.36329130248" lon="18.015801134059">
        <ele>35.6</ele>
        <time>2019-08-20T07:50:03Z</time>
      </trkpt>
      <trkpt lat="59.362763158961" lon="18.016110007074">
        <ele>36</ele>
        <time>2019-08-20T07:50:16Z</time>
      </trkpt>
      <trkpt lat="59.362724769859" lon="18.016143534674">
        <ele>36</ele>
        <time>2019-08-20T07:50:17Z</time>
      </trkpt>
      <trkpt lat="59.362640112669" lon="18.016207991485">
        <ele>36.4</ele>
        <time>2019-08-20T07:50:19Z</time>
      </trkpt>
      <trkpt lat="59.362291844724" lon="18.016540920553">
        <ele>37.6</ele>
        <time>2019-08-20T07:50:28Z</time>
      </trkpt>
      <trkpt lat="59.362074753514" lon="18.016692716762">
        <ele>38.6</ele>
        <time>2019-08-20T07:50:34Z</time>
      </trkpt>
      <trkpt lat="59.361981798243" lon="18.01675742503">
        <ele>39.8</ele>
        <time>2019-08-20T07:50:37Z</time>
      </trkpt>
      <trkpt lat="59.361806784171" lon="18.01683202394">
        <ele>40.2</ele>
        <time>2019-08-20T07:50:41Z</time>
      </trkpt>
      <trkpt lat="59.361712906891" lon="18.016921039718">
        <ele>39.8</ele>
        <time>2019-08-20T07:50:43Z</time>
      </trkpt>
      <trkpt lat="59.361619364887" lon="18.017015922826">
        <ele>39</ele>
        <time>2019-08-20T07:50:45Z</time>
      </trkpt>
      <trkpt lat="59.361576952473" lon="18.017047019675">
        <ele>38.8</ele>
        <time>2019-08-20T07:50:46Z</time>
      </trkpt>
      <trkpt lat="59.361447033023" lon="18.017127234458">
        <ele>37.2</ele>
        <time>2019-08-20T07:50:49Z</time>
      </trkpt>
      <trkpt lat="59.361330943708" lon="18.017177190582">
        <ele>36.2</ele>
        <time>2019-08-20T07:50:51Z</time>
      </trkpt>
      <trkpt lat="59.361130867755" lon="18.017278443934">
        <ele>35</ele>
        <time>2019-08-20T07:50:54Z</time>
      </trkpt>
      <trkpt lat="59.36088234442" lon="18.017348097523">
        <ele>34</ele>
        <time>2019-08-20T07:50:57Z</time>
      </trkpt>
      <trkpt lat="59.36033332997" lon="18.017345750591">
        <ele>33.2</ele>
        <time>2019-08-20T07:51:02Z</time>
      </trkpt>
      <trkpt lat="59.360211960058" lon="18.017353294301">
        <ele>33</ele>
        <time>2019-08-20T07:51:03Z</time>
      </trkpt>
      <trkpt lat="59.35966193978" lon="18.01738187658">
        <ele>31.8</ele>
        <time>2019-08-20T07:51:09Z</time>
      </trkpt>
      <trkpt lat="59.359135975555" lon="18.017355473595">
        <ele>30.8</ele>
        <time>2019-08-20T07:51:16Z</time>
      </trkpt>
      <trkpt lat="59.35859743848" lon="18.017217758978">
        <ele>29.6</ele>
        <time>2019-08-20T07:51:23Z</time>
      </trkpt>
      <trkpt lat="59.358367942058" lon="18.017149362674">
        <ele>28.6</ele>
        <time>2019-08-20T07:51:26Z</time>
      </trkpt>
      <trkpt lat="59.357832673924" lon="18.01702899859">
        <ele>28</ele>
        <time>2019-08-20T07:51:33Z</time>
      </trkpt>
      <trkpt lat="59.357481472314" lon="18.01690494647">
        <ele>27.4</ele>
        <time>2019-08-20T07:51:38Z</time>
      </trkpt>
      <trkpt lat="59.357161116096" lon="18.016753820813">
        <ele>26.4</ele>
        <time>2019-08-20T07:51:43Z</time>
      </trkpt>
      <trkpt lat="59.356759371629" lon="18.016597498378">
        <ele>27</ele>
        <time>2019-08-20T07:51:49Z</time>
      </trkpt>
      <trkpt lat="59.356195269759" lon="18.016435057156">
        <ele>26.6</ele>
        <time>2019-08-20T07:51:56Z</time>
      </trkpt>
      <trkpt lat="59.355719177839" lon="18.016269849907">
        <ele>25.8</ele>
        <time>2019-08-20T07:52:02Z</time>
      </trkpt>
      <trkpt lat="59.355635945572" lon="18.016138505534">
        <ele>25.2</ele>
        <time>2019-08-20T07:52:04Z</time>
      </trkpt>
      <trkpt lat="59.355443664786" lon="18.015852096011">
        <ele>24.8</ele>
        <time>2019-08-20T07:52:09Z</time>
      </trkpt>
      <trkpt lat="59.355359175234" lon="18.015746316433">
        <ele>25</ele>
        <time>2019-08-20T07:52:11Z</time>
      </trkpt>
      <trkpt lat="59.355228585232" lon="18.015698623422">
        <ele>25</ele>
        <time>2019-08-20T07:52:13Z</time>
      </trkpt>
      <trkpt lat="59.355145939698" lon="18.015635842991">
        <ele>25</ele>
        <time>2019-08-20T07:52:15Z</time>
      </trkpt>
      <trkpt lat="59.355093636642" lon="18.015518244934">
        <ele>24.2</ele>
        <time>2019-08-20T07:52:18Z</time>
      </trkpt>
      <trkpt lat="59.355001435742" lon="18.015474072321">
        <ele>23</ele>
        <time>2019-08-20T07:52:24Z</time>
      </trkpt>
      <trkpt lat="59.354898925105" lon="18.015373070426">
        <ele>22.8</ele>
        <time>2019-08-20T07:52:59Z</time>
      </trkpt>
      <trkpt lat="59.354774789166" lon="18.015207108806">
        <ele>22.6</ele>
        <time>2019-08-20T07:53:03Z</time>
      </trkpt>
      <trkpt lat="59.35477948303" lon="18.015139885968">
        <ele>22.2</ele>
        <time>2019-08-20T07:53:05Z</time>
      </trkpt>
      <trkpt lat="59.35475852828" lon="18.015094623708">
        <ele>22</ele>
        <time>2019-08-20T07:53:06Z</time>
      </trkpt>
      <trkpt lat="59.354757354814" lon="18.015043745575">
        <ele>22</ele>
        <time>2019-08-20T07:53:07Z</time>
      </trkpt>
      <trkpt lat="59.354828600964" lon="18.014810812574">
        <ele>21.6</ele>
        <time>2019-08-20T07:53:10Z</time>
      </trkpt>
      <trkpt lat="59.355156836168" lon="18.013855443612">
        <ele>21.6</ele>
        <time>2019-08-20T07:53:19Z</time>
      </trkpt>
      <trkpt lat="59.355190531406" lon="18.013760644323">
        <ele>21.4</ele>
        <time>2019-08-20T07:53:20Z</time>
      </trkpt>
      <trkpt lat="59.355322211055" lon="18.013457219543">
        <ele>20.8</ele>
        <time>2019-08-20T07:53:23Z</time>
      </trkpt>
      <trkpt lat="59.355365964573" lon="18.013145161406">
        <ele>20.4</ele>
        <time>2019-08-20T07:53:26Z</time>
      </trkpt>
      <trkpt lat="59.355488424132" lon="18.012123240158">
        <ele>20.2</ele>
        <time>2019-08-20T07:53:34Z</time>
      </trkpt>
      <trkpt lat="59.355610296958" lon="18.011670282282">
        <ele>20</ele>
        <time>2019-08-20T07:53:36Z</time>
      </trkpt>
      <trkpt lat="59.35563527502" lon="18.011577494649">
        <ele>19.8</ele>
        <time>2019-08-20T07:53:37Z</time>
      </trkpt>
      <trkpt lat="59.355662180919" lon="18.011418238549">
        <ele>21.2</ele>
        <time>2019-08-20T07:53:40Z</time>
      </trkpt>
      <trkpt lat="59.355618259763" lon="18.011514211304">
        <ele>22.2</ele>
        <time>2019-08-20T07:53:42Z</time>
      </trkpt>
      <trkpt lat="59.355508875968" lon="18.011785784864">
        <ele>23.2</ele>
        <time>2019-08-20T07:53:46Z</time>
      </trkpt>
      <trkpt lat="59.355361354528" lon="18.01226807939">
        <ele>23.6</ele>
        <time>2019-08-20T07:53:52Z</time>
      </trkpt>
      <trkpt lat="59.355280972107" lon="18.012382324687">
        <ele>24</ele>
        <time>2019-08-20T07:53:54Z</time>
      </trkpt>
      <trkpt lat="59.355112076822" lon="18.01247846508">
        <ele>24</ele>
        <time>2019-08-20T07:53:57Z</time>
      </trkpt>
      <trkpt lat="59.354631793952" lon="18.012878197891">
        <ele>24.2</ele>
        <time>2019-08-20T07:54:05Z</time>
      </trkpt>
      <trkpt lat="59.35457999381" lon="18.012890519284">
        <ele>24.4</ele>
        <time>2019-08-20T07:54:06Z</time>
      </trkpt>
      <trkpt lat="59.354422665547" lon="18.012880628642">
        <ele>25.4</ele>
        <time>2019-08-20T07:54:10Z</time>
      </trkpt>
      <trkpt lat="59.354363237876" lon="18.012861853186">
        <ele>26.6</ele>
        <time>2019-08-20T07:54:13Z</time>
      </trkpt>
      <trkpt lat="59.354346222619" lon="18.012754313409">
        <ele>26.6</ele>
        <time>2019-08-20T07:54:15Z</time>
      </trkpt>
      <trkpt lat="59.354204317052" lon="18.012712990642">
        <ele>26.6</ele>
        <time>2019-08-20T07:54:18Z</time>
      </trkpt>
      <trkpt lat="59.354105913546" lon="18.012697148851">
        <ele>26.8</ele>
        <time>2019-08-20T07:54:20Z</time>
      </trkpt>
      <trkpt lat="59.354012958275" lon="18.012636128619">
        <ele>26.8</ele>
        <time>2019-08-20T07:54:22Z</time>
      </trkpt>
      <trkpt lat="59.353877925866" lon="18.012346282517">
        <ele>27.6</ele>
        <time>2019-08-20T07:54:27Z</time>
      </trkpt>
      <trkpt lat="59.353822102412" lon="18.012152241532">
        <ele>28.6</ele>
        <time>2019-08-20T07:54:30Z</time>
      </trkpt>
      <trkpt lat="59.353829143208" lon="18.012022405901">
        <ele>29.8</ele>
        <time>2019-08-20T07:54:32Z</time>
      </trkpt>
      <trkpt lat="59.353782204568" lon="18.011887122035">
        <ele>30.8</ele>
        <time>2019-08-20T07:54:35Z</time>
      </trkpt>
      <trkpt lat="59.353772984478" lon="18.011293515877">
        <ele>32</ele>
        <time>2019-08-20T07:54:44Z</time>
      </trkpt>
      <trkpt lat="59.353639628449" lon="18.011095870675">
        <ele>33.2</ele>
        <time>2019-08-20T07:54:47Z</time>
      </trkpt>
      <trkpt lat="59.353527646265" lon="18.010941476077">
        <ele>34</ele>
        <time>2019-08-20T07:54:51Z</time>
      </trkpt>
      <trkpt lat="59.353487999878" lon="18.011030408036">
        <ele>34.2</ele>
        <time>2019-08-20T07:54:53Z</time>
      </trkpt>
      <trkpt lat="59.353416837547" lon="18.011315476455">
        <ele>34.2</ele>
        <time>2019-08-20T07:54:57Z</time>
      </trkpt>
      <trkpt lat="59.35331432691" lon="18.011438522747">
        <ele>34.4</ele>
        <time>2019-08-20T07:55:00Z</time>
      </trkpt>
      <trkpt lat="59.352779058776" lon="18.011298880293">
        <ele>33.8</ele>
        <time>2019-08-20T07:55:10Z</time>
      </trkpt>
      <trkpt lat="59.352243874461" lon="18.01119100524">
        <ele>33.8</ele>
        <time>2019-08-20T07:55:19Z</time>
      </trkpt>
      <trkpt lat="59.352009432718" lon="18.011143312229">
        <ele>34.8</ele>
        <time>2019-08-20T07:55:23Z</time>
      </trkpt>
      <trkpt lat="59.35189191848" lon="18.011135852338">
        <ele>35.6</ele>
        <time>2019-08-20T07:55:25Z</time>
      </trkpt>
      <trkpt lat="59.351735596045" lon="18.011130739379">
        <ele>36.6</ele>
        <time>2019-08-20T07:55:28Z</time>
      </trkpt>
      <trkpt lat="59.351629229734" lon="18.011086315309">
        <ele>36.6</ele>
        <time>2019-08-20T07:55:30Z</time>
      </trkpt>
      <trkpt lat="59.351506267261" lon="18.011077765771">
        <ele>36.2</ele>
        <time>2019-08-20T07:55:32Z</time>
      </trkpt>
      <trkpt lat="59.35138313715" lon="18.011114394674">
        <ele>36</ele>
        <time>2019-08-20T07:55:34Z</time>
      </trkpt>
      <trkpt lat="59.351258498297" lon="18.011178180933">
        <ele>35.4</ele>
        <time>2019-08-20T07:55:36Z</time>
      </trkpt>
      <trkpt lat="59.350950212015" lon="18.011449419217">
        <ele>34.4</ele>
        <time>2019-08-20T07:55:42Z</time>
      </trkpt>
      <trkpt lat="59.350638237697" lon="18.011862814525">
        <ele>34.4</ele>
        <time>2019-08-20T07:55:48Z</time>
      </trkpt>
      <trkpt lat="59.350354007468" lon="18.012050736723">
        <ele>33.2</ele>
        <time>2019-08-20T07:55:52Z</time>
      </trkpt>
      <trkpt lat="59.350184944545" lon="18.012087784721">
        <ele>32.4</ele>
        <time>2019-08-20T07:55:54Z</time>
      </trkpt>
      <trkpt lat="59.350099532984" lon="18.012082252667">
        <ele>32.2</ele>
        <time>2019-08-20T07:55:55Z</time>
      </trkpt>
      <trkpt lat="59.350011103939" lon="18.012051239637">
        <ele>31.8</ele>
        <time>2019-08-20T07:55:56Z</time>
      </trkpt>
      <trkpt lat="59.349750091573" lon="18.011876057927">
        <ele>30.8</ele>
        <time>2019-08-20T07:55:59Z</time>
      </trkpt>
      <trkpt lat="59.349613969517" lon="18.011685872616">
        <ele>29.8</ele>
        <time>2019-08-20T07:56:01Z</time>
      </trkpt>
      <trkpt lat="59.349557391692" lon="18.011570453853">
        <ele>29.2</ele>
        <time>2019-08-20T07:56:02Z</time>
      </trkpt>
      <trkpt lat="59.349408110053" lon="18.011231741274">
        <ele>28.8</ele>
        <time>2019-08-20T07:56:05Z</time>
      </trkpt>
      <trkpt lat="59.349185235332" lon="18.010863775864">
        <ele>28.6</ele>
        <time>2019-08-20T07:56:09Z</time>
      </trkpt>
      <trkpt lat="59.349115246467" lon="18.010650205052">
        <ele>28.6</ele>
        <time>2019-08-20T07:56:11Z</time>
      </trkpt>
      <trkpt lat="59.349080210125" lon="18.010548700243">
        <ele>28</ele>
        <time>2019-08-20T07:56:12Z</time>
      </trkpt>
      <trkpt lat="59.349050119104" lon="18.010439316448">
        <ele>27.4</ele>
        <time>2019-08-20T07:56:13Z</time>
      </trkpt>
      <trkpt lat="59.348996558763" lon="18.010218621021">
        <ele>26.8</ele>
        <time>2019-08-20T07:56:15Z</time>
      </trkpt>
      <trkpt lat="59.348825651822" lon="18.009626188329">
        <ele>26</ele>
        <time>2019-08-20T07:56:20Z</time>
      </trkpt>
      <trkpt lat="59.348806708728" lon="18.009513703231">
        <ele>25.6</ele>
        <time>2019-08-20T07:56:21Z</time>
      </trkpt>
      <trkpt lat="59.34879564462" lon="18.009405828178">
        <ele>25.4</ele>
        <time>2019-08-20T07:56:22Z</time>
      </trkpt>
      <trkpt lat="59.348800589941" lon="18.00919778942">
        <ele>25.4</ele>
        <time>2019-08-20T07:56:24Z</time>
      </trkpt>
      <trkpt lat="59.348810815859" lon="18.008969298826">
        <ele>25.4</ele>
        <time>2019-08-20T07:56:26Z</time>
      </trkpt>
      <trkpt lat="59.348803858882" lon="18.00876612157">
        <ele>25.4</ele>
        <time>2019-08-20T07:56:28Z</time>
      </trkpt>
      <trkpt lat="59.348732864189" lon="18.008428750095">
        <ele>24.6</ele>
        <time>2019-08-20T07:56:32Z</time>
      </trkpt>
      <trkpt lat="59.348600430169" lon="18.008320288309">
        <ele>24.4</ele>
        <time>2019-08-20T07:56:34Z</time>
      </trkpt>
      <trkpt lat="59.348481239551" lon="18.008422882765">
        <ele>24.4</ele>
        <time>2019-08-20T07:56:36Z</time>
      </trkpt>
      <trkpt lat="59.348267668739" lon="18.008794284754">
        <ele>24.8</ele>
        <time>2019-08-20T07:56:40Z</time>
      </trkpt>
      <trkpt lat="59.348147220836" lon="18.008930490629">
        <ele>24.6</ele>
        <time>2019-08-20T07:56:42Z</time>
      </trkpt>
      <trkpt lat="59.347954269498" lon="18.009087232159">
        <ele>24</ele>
        <time>2019-08-20T07:56:45Z</time>
      </trkpt>
      <trkpt lat="59.347896350569" lon="18.009115730619">
        <ele>23.4</ele>
        <time>2019-08-20T07:56:46Z</time>
      </trkpt>
      <trkpt lat="59.347775148295" lon="18.009167698399">
        <ele>22.2</ele>
        <time>2019-08-20T07:56:48Z</time>
      </trkpt>
      <trkpt lat="59.347579347111" lon="18.009198040877">
        <ele>21.6</ele>
        <time>2019-08-20T07:56:51Z</time>
      </trkpt>
      <trkpt lat="59.347420091011" lon="18.00915085078">
        <ele>21.2</ele>
        <time>2019-08-20T07:56:53Z</time>
      </trkpt>
      <trkpt lat="59.346910806767" lon="18.008735527635">
        <ele>21.8</ele>
        <time>2019-08-20T07:57:00Z</time>
      </trkpt>
      <trkpt lat="59.346347878363" lon="18.008302015767">
        <ele>20.8</ele>
        <time>2019-08-20T07:57:08Z</time>
      </trkpt>
      <trkpt lat="59.346214689972" lon="18.008195649456">
        <ele>20.2</ele>
        <time>2019-08-20T07:57:10Z</time>
      </trkpt>
      <trkpt lat="59.345934231598" lon="18.007964644292">
        <ele>19</ele>
        <time>2019-08-20T07:57:15Z</time>
      </trkpt>
      <trkpt lat="59.345754356024" lon="18.007815781748">
        <ele>17.8</ele>
        <time>2019-08-20T07:57:18Z</time>
      </trkpt>
      <trkpt lat="59.345207269411" lon="18.007360728397">
        <ele>18.8</ele>
        <time>2019-08-20T07:57:27Z</time>
      </trkpt>
      <trkpt lat="59.345159492581" lon="18.007323093666">
        <ele>19</ele>
        <time>2019-08-20T07:57:28Z</time>
      </trkpt>
      <trkpt lat="59.345097717978" lon="18.007300043441">
        <ele>19.2</ele>
        <time>2019-08-20T07:57:29Z</time>
      </trkpt>
      <trkpt lat="59.344740313762" lon="18.007252601887">
        <ele>19.8</ele>
        <time>2019-08-20T07:57:34Z</time>
      </trkpt>
      <trkpt lat="59.344560019093" lon="18.007330050643">
        <ele>19.2</ele>
        <time>2019-08-20T07:57:37Z</time>
      </trkpt>
      <trkpt lat="59.344351393602" lon="18.007357794732">
        <ele>18.8</ele>
        <time>2019-08-20T07:57:40Z</time>
      </trkpt>
      <trkpt lat="59.344159531911" lon="18.007454186582">
        <ele>17.8</ele>
        <time>2019-08-20T07:57:43Z</time>
      </trkpt>
      <trkpt lat="59.344047633546" lon="18.007550075518">
        <ele>17.4</ele>
        <time>2019-08-20T07:57:45Z</time>
      </trkpt>
      <trkpt lat="59.343603728122" lon="18.00824476739">
        <ele>17.6</ele>
        <time>2019-08-20T07:57:53Z</time>
      </trkpt>
      <trkpt lat="59.343443214737" lon="18.008707951184">
        <ele>17</ele>
        <time>2019-08-20T07:57:58Z</time>
      </trkpt>
      <trkpt lat="59.343417649942" lon="18.008849018561">
        <ele>17.2</ele>
        <time>2019-08-20T07:58:00Z</time>
      </trkpt>
      <trkpt lat="59.343351181475" lon="18.009044568288">
        <ele>17.8</ele>
        <time>2019-08-20T07:58:03Z</time>
      </trkpt>
      <trkpt lat="59.343249173752" lon="18.009263922611">
        <ele>19</ele>
        <time>2019-08-20T07:58:06Z</time>
      </trkpt>
      <trkpt lat="59.342714911446" lon="18.009400799038">
        <ele>19.2</ele>
        <time>2019-08-20T07:58:14Z</time>
      </trkpt>
      <trkpt lat="59.342651376644" lon="18.009414126259">
        <ele>19.4</ele>
        <time>2019-08-20T07:58:15Z</time>
      </trkpt>
      <trkpt lat="59.342474937649" lon="18.009471626093">
        <ele>20</ele>
        <time>2019-08-20T07:58:18Z</time>
      </trkpt>
      <trkpt lat="59.342426741724" lon="18.009501800933">
        <ele>20.4</ele>
        <time>2019-08-20T07:58:19Z</time>
      </trkpt>
      <trkpt lat="59.342341078706" lon="18.00958922415">
        <ele>21.2</ele>
        <time>2019-08-20T07:58:21Z</time>
      </trkpt>
      <trkpt lat="59.342290032935" lon="18.009674803349">
        <ele>21.6</ele>
        <time>2019-08-20T07:58:22Z</time>
      </trkpt>
      <trkpt lat="59.342141505667" lon="18.010023993303">
        <ele>22.2</ele>
        <time>2019-08-20T07:58:26Z</time>
      </trkpt>
      <trkpt lat="59.342081994177" lon="18.010107979941">
        <ele>22.2</ele>
        <time>2019-08-20T07:58:27Z</time>
      </trkpt>
      <trkpt lat="59.341608835922" lon="18.010746177807">
        <ele>21</ele>
        <time>2019-08-20T07:58:38Z</time>
      </trkpt>
      <trkpt lat="59.341260567977" lon="18.01158998368">
        <ele>21</ele>
        <time>2019-08-20T07:58:51Z</time>
      </trkpt>
      <trkpt lat="59.34111866241" lon="18.012512914689">
        <ele>21.2</ele>
        <time>2019-08-20T07:59:00Z</time>
      </trkpt>
      <trkpt lat="59.341053786504" lon="18.012680552689">
        <ele>21.2</ele>
        <time>2019-08-20T07:59:02Z</time>
      </trkpt>
      <trkpt lat="59.340963764898" lon="18.012822625894">
        <ele>21.4</ele>
        <time>2019-08-20T07:59:04Z</time>
      </trkpt>
      <trkpt lat="59.340866199582" lon="18.012839389694">
        <ele>21.4</ele>
        <time>2019-08-20T07:59:06Z</time>
      </trkpt>
      <trkpt lat="59.340656065349" lon="18.012721623999">
        <ele>21.6</ele>
        <time>2019-08-20T07:59:11Z</time>
      </trkpt>
      <trkpt lat="59.340314251467" lon="18.012761018929">
        <ele>21.8</ele>
        <time>2019-08-20T07:59:20Z</time>
      </trkpt>
      <trkpt lat="59.340273180157" lon="18.012931758232">
        <ele>21.8</ele>
        <time>2019-08-20T07:59:22Z</time>
      </trkpt>
      <trkpt lat="59.340260942583" lon="18.013142227741">
        <ele>21.6</ele>
        <time>2019-08-20T07:59:24Z</time>
      </trkpt>
      <trkpt lat="59.340252560683" lon="18.013496446835">
        <ele>20.8</ele>
        <time>2019-08-20T07:59:27Z</time>
      </trkpt>
      <trkpt lat="59.340204616215" lon="18.013788220774">
        <ele>20.2</ele>
        <time>2019-08-20T07:59:29Z</time>
      </trkpt>
      <trkpt lat="59.34016815495" lon="18.01393607749">
        <ele>20</ele>
        <time>2019-08-20T07:59:30Z</time>
      </trkpt>
      <trkpt lat="59.339931533913" lon="18.014592464079">
        <ele>18.8</ele>
        <time>2019-08-20T07:59:35Z</time>
      </trkpt>
      <trkpt lat="59.339624337278" lon="18.015108872938">
        <ele>19.8</ele>
        <time>2019-08-20T07:59:41Z</time>
      </trkpt>
      <trkpt lat="59.339441611858" lon="18.015321270284">
        <ele>21.2</ele>
        <time>2019-08-20T07:59:45Z</time>
      </trkpt>
      <trkpt lat="59.339397942159" lon="18.015357060997">
        <ele>21.6</ele>
        <time>2019-08-20T07:59:46Z</time>
      </trkpt>
      <trkpt lat="59.339329797312" lon="18.015329484546">
        <ele>22.6</ele>
        <time>2019-08-20T07:59:48Z</time>
      </trkpt>
      <trkpt lat="59.339306579449" lon="18.015233008877">
        <ele>23.8</ele>
        <time>2019-08-20T07:59:50Z</time>
      </trkpt>
      <trkpt lat="59.339262406836" lon="18.015031424182">
        <ele>25</ele>
        <time>2019-08-20T07:59:53Z</time>
      </trkpt>
      <trkpt lat="59.339235752394" lon="18.014862025983">
        <ele>26.4</ele>
        <time>2019-08-20T07:59:56Z</time>
      </trkpt>
      <trkpt lat="59.339116980871" lon="18.014345617124">
        <ele>27.6</ele>
        <time>2019-08-20T08:00:04Z</time>
      </trkpt>
      <trkpt lat="59.339047411101" lon="18.014173536717">
        <ele>28.8</ele>
        <time>2019-08-20T08:00:07Z</time>
      </trkpt>
      <trkpt lat="59.339015476062" lon="18.0141196411">
        <ele>29</ele>
        <time>2019-08-20T08:00:08Z</time>
      </trkpt>
      <trkpt lat="59.338928304302" lon="18.013935071662">
        <ele>29.2</ele>
        <time>2019-08-20T08:00:11Z</time>
      </trkpt>
      <trkpt lat="59.338814897195" lon="18.013713454226">
        <ele>29.8</ele>
        <time>2019-08-20T08:00:14Z</time>
      </trkpt>
      <trkpt lat="59.338723031571" lon="18.013398210967">
        <ele>31</ele>
        <time>2019-08-20T08:00:19Z</time>
      </trkpt>
      <trkpt lat="59.338701741545" lon="18.013290252095">
        <ele>32.2</ele>
        <time>2019-08-20T08:00:21Z</time>
      </trkpt>
      <trkpt lat="59.338578276158" lon="18.012591369273">
        <ele>33.2</ele>
        <time>2019-08-20T08:00:34Z</time>
      </trkpt>
      <trkpt lat="59.338548017499" lon="18.012573432007">
        <ele>33.4</ele>
        <time>2019-08-20T08:00:35Z</time>
      </trkpt>
      <trkpt lat="59.338235121172" lon="18.012553566904">
        <ele>33.8</ele>
        <time>2019-08-20T08:00:43Z</time>
      </trkpt>
      <trkpt lat="59.33802741769" lon="18.01274165674">
        <ele>34.4</ele>
        <time>2019-08-20T08:00:51Z</time>
      </trkpt>
      <trkpt lat="59.337897330602" lon="18.012840144065">
        <ele>34.6</ele>
        <time>2019-08-20T08:00:54Z</time>
      </trkpt>
      <trkpt lat="59.337726256023" lon="18.012852130182">
        <ele>34.8</ele>
        <time>2019-08-20T08:00:56Z</time>
      </trkpt>
      <trkpt lat="59.337217642331" lon="18.013047679909">
        <ele>35.4</ele>
        <time>2019-08-20T08:01:03Z</time>
      </trkpt>
      <trkpt lat="59.337137930462" lon="18.01315823717">
        <ele>35.6</ele>
        <time>2019-08-20T08:01:05Z</time>
      </trkpt>
      <trkpt lat="59.336946655504" lon="18.013377507674">
        <ele>35.8</ele>
        <time>2019-08-20T08:01:08Z</time>
      </trkpt>
      <trkpt lat="59.336801732453" lon="18.013463170692">
        <ele>35.8</ele>
        <time>2019-08-20T08:01:10Z</time>
      </trkpt>
      <trkpt lat="59.336611295685" lon="18.013938843517">
        <ele>34</ele>
        <time>2019-08-20T08:01:15Z</time>
      </trkpt>
      <trkpt lat="59.336505767564" lon="18.014158784573">
        <ele>32.6</ele>
        <time>2019-08-20T08:01:17Z</time>
      </trkpt>
      <trkpt lat="59.336401832004" lon="18.014363219114">
        <ele>31.6</ele>
        <time>2019-08-20T08:01:19Z</time>
      </trkpt>
      <trkpt lat="59.336049373109" lon="18.014856661567">
        <ele>30.4</ele>
        <time>2019-08-20T08:01:26Z</time>
      </trkpt>
      <trkpt lat="59.335976702036" lon="18.014824894166">
        <ele>30.6</ele>
        <time>2019-08-20T08:01:28Z</time>
      </trkpt>
      <trkpt lat="59.335731196185" lon="18.014105643327">
        <ele>29.2</ele>
        <time>2019-08-20T08:01:34Z</time>
      </trkpt>
      <trkpt lat="59.335645533167" lon="18.013910512695">
        <ele>27.6</ele>
        <time>2019-08-20T08:01:36Z</time>
      </trkpt>
      <trkpt lat="59.335559702511" lon="18.013732062044">
        <ele>26.4</ele>
        <time>2019-08-20T08:01:38Z</time>
      </trkpt>
      <trkpt lat="59.335468004525" lon="18.013589234468">
        <ele>25</ele>
        <time>2019-08-20T08:01:40Z</time>
      </trkpt>
      <trkpt lat="59.335371696494" lon="18.01342645797">
        <ele>24</ele>
        <time>2019-08-20T08:01:43Z</time>
      </trkpt>
      <trkpt lat="59.335346299337" lon="18.013362587892">
        <ele>23.8</ele>
        <time>2019-08-20T08:01:46Z</time>
      </trkpt>
    </trkseg>
  </trk>
</gpx>